createdAt,value
2018-06-24T00:01:46.581Z,13.21
2018-06-24T00:04:15.398Z,13.19
2018-06-24T00:06:44.194Z,13.27
2018-06-24T00:09:13.026Z,13.24
2018-06-24T00:11:41.850Z,12.74
2018-06-24T00:14:10.676Z,12.85
2018-06-24T00:16:39.501Z,13.07
2018-06-24T00:19:08.425Z,13.05
2018-06-24T00:21:37.282Z,12.88
2018-06-24T00:24:06.098Z,12.93
2018-06-24T00:26:35.021Z,13.05
2018-06-24T00:29:03.870Z,12.76
2018-06-24T00:31:32.669Z,12.77
2018-06-24T00:34:01.527Z,12.64
2018-06-24T00:36:30.390Z,12.79
2018-06-24T00:38:59.276Z,12.72
2018-06-24T00:41:28.084Z,12.67
2018-06-24T00:43:56.987Z,12.49
2018-06-24T00:46:25.856Z,12.38
2018-06-24T00:48:54.642Z,12.61
2018-06-24T00:51:23.505Z,12.54
2018-06-24T00:53:52.350Z,12.49
2018-06-24T00:56:21.174Z,12.63
2018-06-24T00:58:50.081Z,12.69
2018-06-24T01:01:18.893Z,12.45
2018-06-24T01:03:47.758Z,12.26
2018-06-24T01:06:17.722Z,12.50
2018-06-24T01:08:46.590Z,12.41
2018-06-24T01:11:15.409Z,12.30
2018-06-24T01:13:44.290Z,12.25
2018-06-24T01:16:13.251Z,12.04
2018-06-24T01:18:42.145Z,11.91
2018-06-24T01:21:11.092Z,12.04
2018-06-24T01:23:39.938Z,11.83
2018-06-24T01:26:08.789Z,11.87
2018-06-24T01:28:37.634Z,11.94
2018-06-24T01:31:06.447Z,12.09
2018-06-24T01:33:35.253Z,11.99
2018-06-24T01:36:04.108Z,11.84
2018-06-24T01:38:32.917Z,11.69
2018-06-24T01:41:01.738Z,11.69
2018-06-24T01:43:31.327Z,11.70
2018-06-24T01:46:00.194Z,11.82
2018-06-24T01:48:28.998Z,12.08
2018-06-24T01:50:57.857Z,12.13
2018-06-24T01:53:26.701Z,11.89
2018-06-24T01:55:56.374Z,12.18
2018-06-24T01:58:25.196Z,12.15
2018-06-24T02:00:54.013Z,12.11
2018-06-24T02:03:22.807Z,11.98
2018-06-24T02:05:51.617Z,11.72
2018-06-24T02:08:20.404Z,11.70
2018-06-24T02:10:49.222Z,11.91
2018-06-24T02:13:18.622Z,11.84
2018-06-24T02:15:47.456Z,11.79
2018-06-24T02:18:16.238Z,11.73
2018-06-24T02:20:45.013Z,11.67
2018-06-24T02:23:13.826Z,11.65
2018-06-24T02:25:42.627Z,11.72
2018-06-24T02:28:11.426Z,11.76
2018-06-24T02:30:40.228Z,11.99
2018-06-24T02:33:09.038Z,12.20
2018-06-24T02:35:37.835Z,12.33
2018-06-24T02:38:06.654Z,12.52
2018-06-24T02:40:35.445Z,12.51
2018-06-24T02:43:04.222Z,12.48
2018-06-24T02:45:32.984Z,12.66
2018-06-24T02:48:01.780Z,12.64
2018-06-24T02:50:30.564Z,12.85
2018-06-24T02:52:59.348Z,12.99
2018-06-24T02:55:28.147Z,13.16
2018-06-24T02:57:56.991Z,13.33
2018-06-24T03:00:25.798Z,13.32
2018-06-24T03:02:54.602Z,13.51
2018-06-24T03:05:23.424Z,13.48
2018-06-24T03:07:52.199Z,13.15
2018-06-24T03:10:21.062Z,12.84
2018-06-24T03:12:50.052Z,12.77
2018-06-24T03:15:18.862Z,12.78
2018-06-24T03:17:47.659Z,12.80
2018-06-24T03:20:16.465Z,12.73
2018-06-24T03:22:45.256Z,12.74
2018-06-24T03:25:14.073Z,12.78
2018-06-24T03:27:42.877Z,12.95
2018-06-24T03:30:11.653Z,12.97
2018-06-24T03:32:40.481Z,12.90
2018-06-24T03:35:09.274Z,12.94
2018-06-24T03:37:38.072Z,13.28
2018-06-24T03:40:06.925Z,13.17
2018-06-24T03:42:35.774Z,13.05
2018-06-24T03:45:05.017Z,12.99
2018-06-24T03:47:33.858Z,13.06
2018-06-24T03:50:02.633Z,13.08
2018-06-24T03:52:31.458Z,13.52
2018-06-24T03:55:00.406Z,13.85
2018-06-24T03:57:29.822Z,14.18
2018-06-24T03:59:58.670Z,14.47
2018-06-24T04:02:27.470Z,14.70
2018-06-24T04:04:56.314Z,14.86
2018-06-24T04:07:25.101Z,15.02
2018-06-24T04:09:53.968Z,15.21
2018-06-24T04:12:22.783Z,15.34
2018-06-24T04:14:51.586Z,15.47
2018-06-24T04:17:20.421Z,15.55
2018-06-24T04:19:49.214Z,15.70
2018-06-24T04:22:18.052Z,15.77
2018-06-24T04:24:46.897Z,15.91
2018-06-24T04:27:15.726Z,15.94
2018-06-24T04:29:44.589Z,16.16
2018-06-24T04:32:13.437Z,16.27
2018-06-24T04:34:42.266Z,16.25
2018-06-24T04:37:11.141Z,16.15
2018-06-24T04:39:40.014Z,16.45
2018-06-24T04:42:08.857Z,16.58
2018-06-24T04:44:37.662Z,16.75
2018-06-24T04:47:06.540Z,16.80
2018-06-24T04:49:35.393Z,17.06
2018-06-24T04:52:04.254Z,17.18
2018-06-24T04:54:33.049Z,17.15
2018-06-24T04:57:01.891Z,17.10
2018-06-24T04:59:30.673Z,17.24
2018-06-24T05:01:59.503Z,17.26
2018-06-24T05:04:28.342Z,17.43
2018-06-24T05:06:57.198Z,17.38
2018-06-24T05:09:26.130Z,17.36
2018-06-24T05:11:54.950Z,17.32
2018-06-24T05:14:23.829Z,17.16
2018-06-24T05:16:52.654Z,17.09
2018-06-24T05:19:21.516Z,17.03
2018-06-24T05:21:50.362Z,17.28
2018-06-24T05:24:19.211Z,17.17
2018-06-24T05:26:47.986Z,17.08
2018-06-24T05:29:16.775Z,17.14
2018-06-24T05:31:45.592Z,17.08
2018-06-24T05:34:14.443Z,16.78
2018-06-24T05:36:43.249Z,16.62
2018-06-24T05:39:13.078Z,16.36
2018-06-24T05:41:42.074Z,16.52
2018-06-24T05:44:11.030Z,16.39
2018-06-24T05:46:40.760Z,16.34
2018-06-24T05:49:09.553Z,16.38
2018-06-24T05:51:38.337Z,16.31
2018-06-24T05:54:07.173Z,16.32
2018-06-24T05:56:35.962Z,16.34
2018-06-24T05:59:04.779Z,16.27
2018-06-24T06:01:33.594Z,16.45
2018-06-24T06:04:02.402Z,16.16
2018-06-24T06:06:31.188Z,16.01
2018-06-24T06:09:00.015Z,16.03
2018-06-24T06:11:28.842Z,16.02
2018-06-24T06:13:57.626Z,16.12
2018-06-24T06:16:26.414Z,16.18
2018-06-24T06:18:55.581Z,16.02
2018-06-24T06:21:24.370Z,15.92
2018-06-24T06:23:53.185Z,16.17
2018-06-24T06:26:22.125Z,15.90
2018-06-24T06:28:50.943Z,15.98
2018-06-24T06:31:19.785Z,16.09
2018-06-24T06:33:48.596Z,16.10
2018-06-24T06:36:17.376Z,15.99
2018-06-24T06:38:46.205Z,15.94
2018-06-24T06:41:15.026Z,16.10
2018-06-24T06:43:43.872Z,15.98
2018-06-24T06:46:14.022Z,15.89
2018-06-24T06:48:42.853Z,16.04
2018-06-24T06:51:12.218Z,16.24
2018-06-24T06:53:41.014Z,16.36
2018-06-24T06:56:09.842Z,16.04
2018-06-24T06:58:38.906Z,15.81
2018-06-24T07:01:07.802Z,15.85
2018-06-24T07:03:36.623Z,16.18
2018-06-24T07:06:05.481Z,16.00
2018-06-24T07:08:34.280Z,16.07
2018-06-24T07:11:03.089Z,15.95
2018-06-24T07:13:31.946Z,15.87
2018-06-24T07:16:00.751Z,15.93
2018-06-24T07:18:29.585Z,15.94
2018-06-24T07:20:58.402Z,15.76
2018-06-24T07:23:27.201Z,15.76
2018-06-24T07:25:56.057Z,15.80
2018-06-24T07:28:24.866Z,15.87
2018-06-24T07:30:53.666Z,15.74
2018-06-24T07:33:22.547Z,15.89
2018-06-24T07:35:52.177Z,15.91
2018-06-24T07:38:21.906Z,15.97
2018-06-24T07:40:50.726Z,15.96
2018-06-24T07:43:19.578Z,16.11
2018-06-24T07:45:48.434Z,16.13
2018-06-24T07:48:17.231Z,15.97
2018-06-24T07:50:46.087Z,16.04
2018-06-24T07:53:14.847Z,16.01
2018-06-24T07:55:43.686Z,15.96
2018-06-24T07:58:12.514Z,16.06
2018-06-24T08:00:41.317Z,15.75
2018-06-24T08:03:10.254Z,15.82
2018-06-24T08:05:39.046Z,15.87
2018-06-24T08:08:07.871Z,16.05
2018-06-24T08:10:36.694Z,15.97
2018-06-24T08:13:05.730Z,16.15
2018-06-24T08:15:34.574Z,15.98
2018-06-24T08:18:03.361Z,15.87
2018-06-24T08:20:32.209Z,16.05
2018-06-24T08:23:01.075Z,16.09
2018-06-24T08:25:29.909Z,16.11
2018-06-24T08:27:58.718Z,16.29
2018-06-24T08:30:27.590Z,16.19
2018-06-24T08:32:56.400Z,16.19
2018-06-24T08:35:25.454Z,16.18
2018-06-24T08:37:54.306Z,16.21
2018-06-24T08:40:23.134Z,16.24
2018-06-24T08:42:51.966Z,16.30
2018-06-24T08:45:20.744Z,16.17
2018-06-24T08:47:49.522Z,16.23
2018-06-24T08:50:18.330Z,16.10
2018-06-24T08:52:47.099Z,16.25
2018-06-24T08:55:15.869Z,16.43
2018-06-24T08:57:44.670Z,16.44
2018-06-24T09:00:13.486Z,16.54
2018-06-24T09:02:42.310Z,16.54
2018-06-24T09:05:11.090Z,16.41
2018-06-24T09:07:39.873Z,16.28
2018-06-24T09:10:08.658Z,16.31
2018-06-24T09:12:37.441Z,16.40
2018-06-24T09:15:06.287Z,16.40
2018-06-24T09:17:35.793Z,16.33
2018-06-24T09:20:05.214Z,16.35
2018-06-24T09:22:34.012Z,16.39
2018-06-24T09:25:03.022Z,16.46
2018-06-24T09:27:31.829Z,16.51
2018-06-24T09:30:00.685Z,16.56
2018-06-24T09:32:29.511Z,16.68
2018-06-24T09:34:58.356Z,16.53
2018-06-24T09:37:27.149Z,16.53
2018-06-24T09:39:55.965Z,16.54
2018-06-24T09:42:24.728Z,16.62
2018-06-24T09:44:53.502Z,16.66
2018-06-24T09:47:22.382Z,16.70
2018-06-24T09:49:51.203Z,16.64
2018-06-24T09:52:20.029Z,16.75
2018-06-24T09:54:48.862Z,16.85
2018-06-24T09:57:17.698Z,16.71
2018-06-24T09:59:46.488Z,16.73
2018-06-24T10:02:15.282Z,16.77
2018-06-24T10:04:44.085Z,16.97
2018-06-24T10:07:12.919Z,17.01
2018-06-24T10:09:41.718Z,16.89
2018-06-24T10:12:10.496Z,16.85
2018-06-24T10:14:39.303Z,16.93
2018-06-24T10:17:08.116Z,17.01
2018-06-24T10:19:36.975Z,16.95
2018-06-24T10:22:05.802Z,16.95
2018-06-24T10:24:34.574Z,16.96
2018-06-24T10:27:03.385Z,16.93
2018-06-24T10:29:32.203Z,16.93
2018-06-24T10:32:01.102Z,17.01
2018-06-24T10:34:29.890Z,17.12
2018-06-24T10:36:58.653Z,17.05
2018-06-24T10:39:27.437Z,16.99
2018-06-24T10:41:56.929Z,17.11
2018-06-24T10:44:25.729Z,17.19
2018-06-24T10:46:54.506Z,17.13
2018-06-24T10:49:23.325Z,17.07
2018-06-24T10:51:52.126Z,17.09
2018-06-24T10:54:20.927Z,17.13
2018-06-24T10:56:49.744Z,17.26
2018-06-24T10:59:18.552Z,17.20
2018-06-24T11:01:47.378Z,17.19
2018-06-24T11:04:16.198Z,17.18
2018-06-24T11:06:45.028Z,17.21
2018-06-24T11:09:13.832Z,17.03
2018-06-24T11:11:42.636Z,17.17
2018-06-24T11:14:12.055Z,17.37
2018-06-24T11:16:41.025Z,17.31
2018-06-24T11:19:09.922Z,17.28
2018-06-24T11:21:38.769Z,17.40
2018-06-24T11:24:07.780Z,17.38
2018-06-24T11:26:36.850Z,17.37
2018-06-24T11:29:05.760Z,17.27
2018-06-24T11:31:34.663Z,17.43
2018-06-24T11:34:04.014Z,17.51
2018-06-24T11:36:32.842Z,17.37
2018-06-24T11:39:01.662Z,17.57
2018-06-24T11:41:30.433Z,17.49
2018-06-24T11:43:59.208Z,17.71
2018-06-24T11:46:28.034Z,17.51
2018-06-24T11:48:56.845Z,17.59
2018-06-24T11:51:25.642Z,17.53
2018-06-24T11:53:54.434Z,17.60
2018-06-24T11:56:23.513Z,17.50
2018-06-24T11:58:52.318Z,17.46
2018-06-24T12:01:21.102Z,17.55
2018-06-24T12:03:49.963Z,17.52
2018-06-24T12:06:19.973Z,17.47
2018-06-24T12:08:49.362Z,17.58
2018-06-24T12:11:18.197Z,17.88
2018-06-24T12:13:46.981Z,17.87
2018-06-24T12:16:15.809Z,17.79
2018-06-24T12:18:44.618Z,17.86
2018-06-24T12:21:13.423Z,18.01
2018-06-24T12:23:42.181Z,17.98
2018-06-24T12:26:10.997Z,17.75
2018-06-24T12:28:39.835Z,17.69
2018-06-24T12:31:08.597Z,17.71
2018-06-24T12:33:37.416Z,17.69
2018-06-24T12:36:06.247Z,17.91
2018-06-24T12:38:35.058Z,17.90
2018-06-24T12:41:03.835Z,17.92
2018-06-24T12:43:32.786Z,17.93
2018-06-24T12:46:01.531Z,17.70
2018-06-24T12:48:30.338Z,17.98
2018-06-24T12:50:59.122Z,18.13
2018-06-24T12:53:27.921Z,18.03
2018-06-24T12:55:56.706Z,18.04
2018-06-24T12:58:26.479Z,18.09
2018-06-24T13:00:55.483Z,18.17
2018-06-24T13:03:24.042Z,18.34
2018-06-24T13:05:52.958Z,18.15
2018-06-24T13:08:21.765Z,18.20
2018-06-24T13:10:50.572Z,18.21
2018-06-24T13:13:19.407Z,18.20
2018-06-24T13:15:48.201Z,18.11
2018-06-24T13:18:17.178Z,18.24
2018-06-24T13:20:45.971Z,18.30
2018-06-24T13:23:14.740Z,18.32
2018-06-24T13:25:43.648Z,18.37
2018-06-24T13:28:12.492Z,18.26
2018-06-24T13:30:41.259Z,18.34
2018-06-24T13:33:10.053Z,18.56
2018-06-24T13:35:38.880Z,18.46
2018-06-24T13:38:07.663Z,18.42
2018-06-24T13:40:36.616Z,18.44
2018-06-24T13:43:05.507Z,18.56
2018-06-24T13:45:34.303Z,18.46
2018-06-24T13:48:03.102Z,18.49
2018-06-24T13:50:31.896Z,18.47
2018-06-24T13:53:00.700Z,18.48
2018-06-24T13:55:29.469Z,18.60
2018-06-24T13:57:58.319Z,18.57
2018-06-24T14:00:27.091Z,18.59
2018-06-24T14:02:55.937Z,18.59
2018-06-24T14:05:24.737Z,18.43
2018-06-24T14:07:53.590Z,18.56
2018-06-24T14:10:22.530Z,18.63
2018-06-24T14:12:51.366Z,18.72
2018-06-24T14:15:20.306Z,18.79
2018-06-24T14:17:49.242Z,18.80
2018-06-24T14:20:18.120Z,18.85
2018-06-24T14:22:46.920Z,18.68
2018-06-24T14:25:15.792Z,18.80
2018-06-24T14:27:44.642Z,18.77
2018-06-24T14:30:13.442Z,18.91
2018-06-24T14:32:42.247Z,18.95
2018-06-24T14:35:11.075Z,18.87
2018-06-24T14:37:39.882Z,18.88
2018-06-24T14:40:08.710Z,18.91
2018-06-24T14:42:37.526Z,18.86
2018-06-24T14:45:06.464Z,18.95
2018-06-24T14:47:35.375Z,18.94
2018-06-24T14:50:04.260Z,18.99
2018-06-24T14:52:33.127Z,18.88
2018-06-24T14:55:02.154Z,18.96
2018-06-24T14:57:31.129Z,18.82
2018-06-24T14:59:59.969Z,18.75
2018-06-24T15:02:29.037Z,18.86
2018-06-24T15:04:57.825Z,18.99
2018-06-24T15:07:26.629Z,19.12
2018-06-24T15:09:55.471Z,19.01
2018-06-24T15:12:24.289Z,18.94
2018-06-24T15:14:53.132Z,19.08
2018-06-24T15:17:21.987Z,19.01
2018-06-24T15:19:50.758Z,19.00
2018-06-24T15:22:19.581Z,19.00
2018-06-24T15:24:48.402Z,18.95
2018-06-24T15:27:17.249Z,18.98
2018-06-24T15:29:46.146Z,19.01
2018-06-24T15:32:14.965Z,18.83
2018-06-24T15:34:43.770Z,18.86
2018-06-24T15:37:12.601Z,18.94
2018-06-24T15:39:41.391Z,18.98
2018-06-24T15:42:10.222Z,18.97
2018-06-24T15:44:38.979Z,19.03
2018-06-24T15:47:07.798Z,19.28
2018-06-24T15:49:36.589Z,19.22
2018-06-24T15:52:05.538Z,19.19
2018-06-24T15:54:34.345Z,19.26
2018-06-24T15:57:03.197Z,19.34
2018-06-24T15:59:31.991Z,19.32
2018-06-24T16:02:00.785Z,19.23
2018-06-24T16:04:29.560Z,19.26
2018-06-24T16:06:58.356Z,19.07
2018-06-24T16:09:27.153Z,19.33
2018-06-24T16:11:55.934Z,19.32
2018-06-24T16:14:24.790Z,19.38
2018-06-24T16:16:53.820Z,19.32
2018-06-24T16:19:22.628Z,19.38
2018-06-24T16:21:51.402Z,19.38
2018-06-24T16:24:20.209Z,19.40
2018-06-24T16:26:49.014Z,19.37
2018-06-24T16:29:17.825Z,19.36
2018-06-24T16:31:46.635Z,19.37
2018-06-24T16:34:15.478Z,19.33
2018-06-24T16:36:44.347Z,19.54
2018-06-24T16:39:13.790Z,19.50
2018-06-24T16:41:42.602Z,19.44
2018-06-24T16:44:11.946Z,19.52
2018-06-24T16:46:40.810Z,19.51
2018-06-24T16:49:09.670Z,19.55
2018-06-24T16:51:38.450Z,19.58
2018-06-24T16:54:07.318Z,19.48
2018-06-24T16:56:36.180Z,19.41
2018-06-24T16:59:05.074Z,19.59
2018-06-24T17:01:33.880Z,19.62
2018-06-24T17:04:02.706Z,19.63
2018-06-24T17:06:31.465Z,19.61
2018-06-24T17:09:00.254Z,19.52
2018-06-24T17:11:29.087Z,19.68
2018-06-24T17:13:57.943Z,19.64
2018-06-24T17:16:26.746Z,19.57
2018-06-24T17:18:55.837Z,19.56
2018-06-24T17:21:24.633Z,19.57
2018-06-24T17:23:53.442Z,19.54
2018-06-24T17:26:22.318Z,19.31
2018-06-24T17:28:51.077Z,19.33
2018-06-24T17:31:19.862Z,19.30
2018-06-24T17:33:48.669Z,19.30
2018-06-24T17:36:17.483Z,19.21
2018-06-24T17:38:46.322Z,19.24
2018-06-24T17:41:15.173Z,19.24
2018-06-24T17:43:43.974Z,19.22
2018-06-24T17:46:12.800Z,19.26
2018-06-24T17:48:41.794Z,19.32
2018-06-24T17:51:10.972Z,19.31
2018-06-24T17:53:40.509Z,19.40
2018-06-24T17:56:09.370Z,19.40
2018-06-24T17:58:38.213Z,19.40
2018-06-24T18:01:07.217Z,19.28
2018-06-24T18:03:36.019Z,19.24
2018-06-24T18:06:04.913Z,19.31
2018-06-24T18:08:33.880Z,19.37
2018-06-24T18:11:03.377Z,19.38
2018-06-24T18:13:32.252Z,19.34
2018-06-24T18:16:01.124Z,19.35
2018-06-24T18:18:29.979Z,19.37
2018-06-24T18:20:58.826Z,19.38
2018-06-24T18:23:27.657Z,19.33
2018-06-24T18:25:56.513Z,19.31
2018-06-24T18:28:25.289Z,19.26
2018-06-24T18:30:54.159Z,19.27
2018-06-24T18:33:23.028Z,19.24
2018-06-24T18:35:51.858Z,19.20
2018-06-24T18:38:20.699Z,19.18
2018-06-24T18:40:49.560Z,19.23
2018-06-24T18:43:34.202Z,19.15
2018-06-24T18:46:02.993Z,19.15
2018-06-24T18:48:32.025Z,19.15
2018-06-24T18:51:00.848Z,19.11
2018-06-24T18:53:29.808Z,19.08
2018-06-24T18:55:58.725Z,19.09
2018-06-24T18:58:27.710Z,19.02
2018-06-24T19:00:56.645Z,18.95
2018-06-24T19:03:25.503Z,18.95
2018-06-24T19:05:54.426Z,18.91
2018-06-24T19:08:23.270Z,18.82
2018-06-24T19:10:52.154Z,18.78
2018-06-24T19:13:21.044Z,18.80
2018-06-24T19:15:49.982Z,18.90
2018-06-24T19:18:18.858Z,18.91
2018-06-24T19:20:47.750Z,18.96
2018-06-24T19:23:16.683Z,15.70
2018-06-24T19:25:45.591Z,19.01
2018-06-24T19:28:14.508Z,18.93
2018-06-24T19:30:43.326Z,18.91
2018-06-24T19:33:12.143Z,18.83
2018-06-24T19:35:40.969Z,18.86
2018-06-24T19:38:09.776Z,18.90
2018-06-24T19:40:38.600Z,18.88
2018-06-24T19:43:07.406Z,18.90
2018-06-24T19:45:36.221Z,18.90
2018-06-24T19:48:05.046Z,18.83
2018-06-24T19:50:33.845Z,18.71
2018-06-24T19:53:02.634Z,18.64
2018-06-24T19:55:31.466Z,18.57
2018-06-24T19:58:00.233Z,18.61
2018-06-24T20:00:29.154Z,18.70
2018-06-24T20:02:57.946Z,18.58
2018-06-24T20:05:26.775Z,18.42
2018-06-24T20:07:55.534Z,18.41
2018-06-24T20:10:24.375Z,18.36
2018-06-24T20:12:53.198Z,18.25
2018-06-24T20:15:22.007Z,18.07
2018-06-24T20:17:50.809Z,18.09
2018-06-24T20:20:19.599Z,18.09
2018-06-24T20:22:48.410Z,18.03
2018-06-24T20:25:17.194Z,18.00
2018-06-24T20:27:46.006Z,18.11
2018-06-24T20:30:14.790Z,17.83
2018-06-24T20:32:43.586Z,17.82
2018-06-24T20:35:12.362Z,17.69
2018-06-24T20:37:41.155Z,17.72
2018-06-24T20:40:09.981Z,17.65
2018-06-24T20:42:38.796Z,17.60
2018-06-24T20:45:07.630Z,17.70
2018-06-24T20:47:36.397Z,17.50
2018-06-24T20:50:05.228Z,17.29
2018-06-24T20:52:34.073Z,17.46
2018-06-24T20:55:02.874Z,17.66
2018-06-24T20:57:31.710Z,17.28
2018-06-24T21:00:00.507Z,17.57
2018-06-24T21:02:29.328Z,17.25
2018-06-24T21:04:58.114Z,17.21
2018-06-24T21:07:26.914Z,17.32
2018-06-24T21:09:55.801Z,17.26
2018-06-24T21:12:24.573Z,17.07
2018-06-24T21:14:53.402Z,17.23
2018-06-24T21:17:22.166Z,17.13
2018-06-24T21:19:50.963Z,17.32
2018-06-24T21:22:19.764Z,17.35
2018-06-24T21:24:48.623Z,17.31
2018-06-24T21:27:17.409Z,17.33
2018-06-24T21:29:46.210Z,16.98
2018-06-24T21:32:15.030Z,16.92
2018-06-24T21:34:44.007Z,17.09
2018-06-24T21:37:12.906Z,16.93
2018-06-24T21:39:41.767Z,16.83
2018-06-24T21:42:10.660Z,16.82
2018-06-24T21:44:39.578Z,16.77
2018-06-24T21:47:08.439Z,16.89
2018-06-24T21:49:37.405Z,16.82
2018-06-24T21:52:06.621Z,16.74
2018-06-24T21:54:35.515Z,16.83
2018-06-24T21:57:04.522Z,16.74
2018-06-24T21:59:33.386Z,16.69
2018-06-24T22:02:02.286Z,16.75
2018-06-24T22:04:31.179Z,16.69
2018-06-24T22:07:00.081Z,16.51
2018-06-24T22:09:51.490Z,16.44
2018-06-24T22:12:20.389Z,16.25
2018-06-24T22:14:49.310Z,16.33
